Nansha Dao, China
Current Conditions -  °F | °C
As of 12:00 AM on Friday 31 Oct 2014 (Local Time) from WBKT Reporting Station
Broken Clouds Broken Clouds  
Wind Chill: 75°   Ceiling: 27000
Heat Index: 75°   Visibility: 6mi
Dew Point: 75°   Wind: 2mph
Humidity: 100%   Direction: 240°WSW
Pressure: 29.8"   Gusts: NA
Location:  10.38°N, 114.37°E
Report Text: WBKT 301600Z 24002KT 9999 FEW016 BKN270 24/24 Q1009
Loading
Personal Weather Stations






























Interactive Weather Map
Tropical Storm Tracking
New forecast layout! Learn more

10-Day Weather Forecast

Advertisements
Track Severe Weather on mobile